sensor_id;sensor_type;location;lat;lon;timestamp;P1;durP1;ratioP1;P2;durP2;ratioP2
78053;SDS011;67726;45.636;11.752;2024-01-30T00:01:50;75.53;;;37.05;;
78053;SDS011;67726;45.636;11.752;2024-01-30T00:04:16;82.65;;;39.40;;
78053;SDS011;67726;45.636;11.752;2024-01-30T00:06:42;84.23;;;38.53;;
78053;SDS011;67726;45.636;11.752;2024-01-30T00:09:08;75.75;;;39.33;;
78053;SDS011;67726;45.636;11.752;2024-01-30T00:11:35;90.25;;;41.15;;
78053;SDS011;67726;45.636;11.752;2024-01-30T00:14:01;84.50;;;38.95;;
78053;SDS011;67726;45.636;11.752;2024-01-30T00:16:28;96.90;;;41.22;;
78053;SDS011;67726;45.636;11.752;2024-01-30T00:18:54;92.03;;;39.60;;
78053;SDS011;67726;45.636;11.752;2024-01-30T00:21:20;92.53;;;42.47;;
78053;SDS011;67726;45.636;11.752;2024-01-30T00:23:46;95.05;;;41.15;;
78053;SDS011;67726;45.636;11.752;2024-01-30T00:26:12;89.43;;;40.60;;
78053;SDS011;67726;45.636;11.752;2024-01-30T00:28:40;87.78;;;41.20;;
78053;SDS011;67726;45.636;11.752;2024-01-30T00:31:06;87.53;;;40.77;;
78053;SDS011;67726;45.636;11.752;2024-01-30T00:33:32;94.45;;;42.30;;
78053;SDS011;67726;45.636;11.752;2024-01-30T00:35:57;102.37;;;42.70;;
78053;SDS011;67726;45.636;11.752;2024-01-30T00:38:23;98.32;;;43.15;;
78053;SDS011;67726;45.636;11.752;2024-01-30T00:40:49;98.53;;;44.93;;
78053;SDS011;67726;45.636;11.752;2024-01-30T00:43:15;85.47;;;41.42;;
78053;SDS011;67726;45.636;11.752;2024-01-30T00:45:41;84.30;;;39.80;;
78053;SDS011;67726;45.636;11.752;2024-01-30T00:48:11;92.88;;;41.13;;
78053;SDS011;67726;45.636;11.752;2024-01-30T00:50:37;94.88;;;41.92;;
78053;SDS011;67726;45.636;11.752;2024-01-30T00:53:03;96.93;;;42.77;;
78053;SDS011;67726;45.636;11.752;2024-01-30T00:55:28;91.03;;;40.70;;
78053;SDS011;67726;45.636;11.752;2024-01-30T00:57:54;92.50;;;41.20;;
78053;SDS011;67726;45.636;11.752;2024-01-30T01:00:20;84.00;;;40.78;;
78053;SDS011;67726;45.636;11.752;2024-01-30T01:02:46;96.20;;;41.63;;
78053;SDS011;67726;45.636;11.752;2024-01-30T01:05:11;88.30;;;41.70;;
78053;SDS011;67726;45.636;11.752;2024-01-30T01:07:37;89.50;;;40.67;;
78053;SDS011;67726;45.636;11.752;2024-01-30T01:10:03;94.87;;;41.37;;
78053;SDS011;67726;45.636;11.752;2024-01-30T01:12:29;92.47;;;43.22;;
78053;SDS011;67726;45.636;11.752;2024-01-30T01:14:55;91.30;;;42.67;;
78053;SDS011;67726;45.636;11.752;2024-01-30T01:17:20;91.72;;;43.05;;
78053;SDS011;67726;45.636;11.752;2024-01-30T01:19:46;86.37;;;41.00;;
78053;SDS011;67726;45.636;11.752;2024-01-30T01:22:12;96.00;;;41.50;;
78053;SDS011;67726;45.636;11.752;2024-01-30T01:24:37;90.33;;;40.80;;
78053;SDS011;67726;45.636;11.752;2024-01-30T01:27:04;96.25;;;42.25;;
78053;SDS011;67726;45.636;11.752;2024-01-30T01:29:30;86.45;;;42.35;;
78053;SDS011;67726;45.636;11.752;2024-01-30T01:31:57;82.47;;;40.07;;
78053;SDS011;67726;45.636;11.752;2024-01-30T01:34:23;88.70;;;38.47;;
78053;SDS011;67726;45.636;11.752;2024-01-30T01:36:49;81.80;;;39.70;;
78053;SDS011;67726;45.636;11.752;2024-01-30T01:39:15;93.25;;;42.08;;
78053;SDS011;67726;45.636;11.752;2024-01-30T01:41:41;78.95;;;38.33;;
78053;SDS011;67726;45.636;11.752;2024-01-30T01:44:07;84.27;;;40.20;;
78053;SDS011;67726;45.636;11.752;2024-01-30T01:46:33;76.95;;;38.95;;
78053;SDS011;67726;45.636;11.752;2024-01-30T01:49:00;83.75;;;40.15;;
78053;SDS011;67726;45.636;11.752;2024-01-30T01:51:27;75.72;;;39.00;;
78053;SDS011;67726;45.636;11.752;2024-01-30T01:53:54;80.83;;;39.07;;
78053;SDS011;67726;45.636;11.752;2024-01-30T01:56:22;88.72;;;40.17;;
78053;SDS011;67726;45.636;11.752;2024-01-30T01:58:49;86.90;;;39.90;;
78053;SDS011;67726;45.636;11.752;2024-01-30T02:01:16;80.88;;;38.90;;
78053;SDS011;67726;45.636;11.752;2024-01-30T02:03:45;85.80;;;39.55;;
78053;SDS011;67726;45.636;11.752;2024-01-30T02:06:11;83.63;;;39.40;;
78053;SDS011;67726;45.636;11.752;2024-01-30T02:08:40;82.65;;;39.00;;
78053;SDS011;67726;45.636;11.752;2024-01-30T02:11:05;74.38;;;37.22;;
78053;SDS011;67726;45.636;11.752;2024-01-30T02:13:31;72.63;;;36.30;;
78053;SDS011;67726;45.636;11.752;2024-01-30T02:15:57;72.90;;;34.20;;
78053;SDS011;67726;45.636;11.752;2024-01-30T02:18:23;73.80;;;34.92;;
78053;SDS011;67726;45.636;11.752;2024-01-30T02:20:48;66.63;;;34.90;;
78053;SDS011;67726;45.636;11.752;2024-01-30T02:23:18;75.20;;;36.35;;
78053;SDS011;67726;45.636;11.752;2024-01-30T02:25:45;75.55;;;36.83;;
78053;SDS011;67726;45.636;11.752;2024-01-30T02:28:14;72.53;;;36.40;;
78053;SDS011;67726;45.636;11.752;2024-01-30T02:30:40;67.25;;;36.45;;
78053;SDS011;67726;45.636;11.752;2024-01-30T02:33:07;73.65;;;35.30;;
78053;SDS011;67726;45.636;11.752;2024-01-30T02:35:33;76.07;;;36.83;;
78053;SDS011;67726;45.636;11.752;2024-01-30T02:37:59;72.72;;;34.63;;
78053;SDS011;67726;45.636;11.752;2024-01-30T02:40:25;72.97;;;36.05;;
78053;SDS011;67726;45.636;11.752;2024-01-30T02:42:51;75.25;;;35.00;;
78053;SDS011;67726;45.636;11.752;2024-01-30T02:45:16;74.30;;;35.93;;
78053;SDS011;67726;45.636;11.752;2024-01-30T02:47:42;64.65;;;32.70;;
78053;SDS011;67726;45.636;11.752;2024-01-30T02:50:08;69.83;;;34.90;;
78053;SDS011;67726;45.636;11.752;2024-01-30T02:52:34;69.53;;;35.50;;
78053;SDS011;67726;45.636;11.752;2024-01-30T02:55:00;71.20;;;35.17;;
78053;SDS011;67726;45.636;11.752;2024-01-30T02:57:26;77.30;;;34.83;;
78053;SDS011;67726;45.636;11.752;2024-01-30T02:59:52;92.43;;;40.95;;
78053;SDS011;67726;45.636;11.752;2024-01-30T03:02:18;75.93;;;35.63;;
78053;SDS011;67726;45.636;11.752;2024-01-30T03:04:43;71.30;;;36.97;;
78053;SDS011;67726;45.636;11.752;2024-01-30T03:07:09;75.77;;;39.00;;
78053;SDS011;67726;45.636;11.752;2024-01-30T03:09:36;76.63;;;38.30;;
78053;SDS011;67726;45.636;11.752;2024-01-30T03:12:02;82.35;;;37.28;;
78053;SDS011;67726;45.636;11.752;2024-01-30T03:14:30;63.50;;;33.57;;
78053;SDS011;67726;45.636;11.752;2024-01-30T03:16:56;66.95;;;33.58;;
78053;SDS011;67726;45.636;11.752;2024-01-30T03:19:22;73.47;;;35.67;;
78053;SDS011;67726;45.636;11.752;2024-01-30T03:21:47;71.33;;;34.37;;
78053;SDS011;67726;45.636;11.752;2024-01-30T03:24:13;69.60;;;36.45;;
78053;SDS011;67726;45.636;11.752;2024-01-30T03:26:39;75.30;;;36.33;;
78053;SDS011;67726;45.636;11.752;2024-01-30T03:29:04;75.15;;;34.30;;
78053;SDS011;67726;45.636;11.752;2024-01-30T03:31:30;72.50;;;34.53;;
78053;SDS011;67726;45.636;11.752;2024-01-30T03:33:56;75.43;;;34.72;;
78053;SDS011;67726;45.636;11.752;2024-01-30T03:36:21;69.37;;;33.83;;
78053;SDS011;67726;45.636;11.752;2024-01-30T03:38:47;74.80;;;35.57;;
78053;SDS011;67726;45.636;11.752;2024-01-30T03:41:13;73.65;;;36.45;;
78053;SDS011;67726;45.636;11.752;2024-01-30T03:43:38;77.57;;;38.13;;
78053;SDS011;67726;45.636;11.752;2024-01-30T03:46:04;71.53;;;35.25;;
78053;SDS011;67726;45.636;11.752;2024-01-30T03:48:30;74.10;;;35.90;;
78053;SDS011;67726;45.636;11.752;2024-01-30T03:50:55;72.60;;;37.35;;
78053;SDS011;67726;45.636;11.752;2024-01-30T03:53:21;75.63;;;37.83;;
78053;SDS011;67726;45.636;11.752;2024-01-30T03:55:47;81.95;;;40.33;;
78053;SDS011;67726;45.636;11.752;2024-01-30T03:58:13;97.17;;;44.73;;
78053;SDS011;67726;45.636;11.752;2024-01-30T04:00:38;85.40;;;38.50;;
78053;SDS011;67726;45.636;11.752;2024-01-30T04:03:04;86.07;;;39.80;;
78053;SDS011;67726;45.636;11.752;2024-01-30T04:05:30;83.55;;;37.50;;
78053;SDS011;67726;45.636;11.752;2024-01-30T04:07:55;87.20;;;37.53;;
78053;SDS011;67726;45.636;11.752;2024-01-30T04:10:21;82.60;;;38.07;;
78053;SDS011;67726;45.636;11.752;2024-01-30T04:12:47;85.88;;;38.58;;
78053;SDS011;67726;45.636;11.752;2024-01-30T04:15:13;84.77;;;38.10;;
78053;SDS011;67726;45.636;11.752;2024-01-30T04:17:39;79.38;;;37.17;;
78053;SDS011;67726;45.636;11.752;2024-01-30T04:20:05;84.97;;;38.20;;
78053;SDS011;67726;45.636;11.752;2024-01-30T04:22:31;89.40;;;39.78;;
78053;SDS011;67726;45.636;11.752;2024-01-30T04:24:57;75.00;;;36.37;;
78053;SDS011;67726;45.636;11.752;2024-01-30T04:27:22;81.83;;;36.67;;
78053;SDS011;67726;45.636;11.752;2024-01-30T04:29:48;77.13;;;36.13;;
78053;SDS011;67726;45.636;11.752;2024-01-30T04:32:14;75.60;;;36.23;;
78053;SDS011;67726;45.636;11.752;2024-01-30T04:34:40;79.03;;;36.92;;
78053;SDS011;67726;45.636;11.752;2024-01-30T04:37:05;82.23;;;38.10;;
78053;SDS011;67726;45.636;11.752;2024-01-30T04:39:32;84.97;;;37.87;;
78053;SDS011;67726;45.636;11.752;2024-01-30T04:41:58;85.15;;;35.42;;
78053;SDS011;67726;45.636;11.752;2024-01-30T04:44:24;79.68;;;39.58;;
78053;SDS011;67726;45.636;11.752;2024-01-30T04:46:50;90.40;;;40.43;;
78053;SDS011;67726;45.636;11.752;2024-01-30T04:49:15;91.82;;;40.53;;
78053;SDS011;67726;45.636;11.752;2024-01-30T04:51:41;82.93;;;38.47;;
78053;SDS011;67726;45.636;11.752;2024-01-30T04:54:07;81.13;;;37.77;;
78053;SDS011;67726;45.636;11.752;2024-01-30T04:56:33;94.60;;;40.33;;
78053;SDS011;67726;45.636;11.752;2024-01-30T04:59:01;91.03;;;41.78;;
78053;SDS011;67726;45.636;11.752;2024-01-30T05:01:27;93.20;;;41.22;;
78053;SDS011;67726;45.636;11.752;2024-01-30T05:03:53;86.30;;;40.17;;
78053;SDS011;67726;45.636;11.752;2024-01-30T05:06:25;86.13;;;38.35;;
78053;SDS011;67726;45.636;11.752;2024-01-30T05:08:51;93.25;;;41.22;;
78053;SDS011;67726;45.636;11.752;2024-01-30T05:11:17;86.07;;;39.37;;
78053;SDS011;67726;45.636;11.752;2024-01-30T05:13:43;96.25;;;41.90;;
78053;SDS011;67726;45.636;11.752;2024-01-30T05:16:09;88.23;;;39.37;;
78053;SDS011;67726;45.636;11.752;2024-01-30T05:18:35;98.07;;;42.13;;
78053;SDS011;67726;45.636;11.752;2024-01-30T05:21:01;93.38;;;41.97;;
78053;SDS011;67726;45.636;11.752;2024-01-30T05:23:27;90.73;;;40.20;;
78053;SDS011;67726;45.636;11.752;2024-01-30T05:25:53;93.93;;;41.58;;
78053;SDS011;67726;45.636;11.752;2024-01-30T05:28:19;78.60;;;37.80;;
78053;SDS011;67726;45.636;11.752;2024-01-30T05:30:44;91.90;;;41.50;;
78053;SDS011;67726;45.636;11.752;2024-01-30T05:33:10;93.20;;;40.30;;
78053;SDS011;67726;45.636;11.752;2024-01-30T05:35:37;95.25;;;41.83;;
78053;SDS011;67726;45.636;11.752;2024-01-30T05:38:03;94.97;;;43.63;;
78053;SDS011;67726;45.636;11.752;2024-01-30T05:40:29;88.00;;;42.77;;
78053;SDS011;67726;45.636;11.752;2024-01-30T05:42:55;85.40;;;40.45;;
78053;SDS011;67726;45.636;11.752;2024-01-30T05:45:23;95.03;;;41.72;;
78053;SDS011;67726;45.636;11.752;2024-01-30T05:47:49;88.25;;;39.35;;
78053;SDS011;67726;45.636;11.752;2024-01-30T05:50:14;80.30;;;39.60;;
78053;SDS011;67726;45.636;11.752;2024-01-30T05:52:40;68.50;;;36.47;;
78053;SDS011;67726;45.636;11.752;2024-01-30T05:55:06;84.60;;;37.80;;
78053;SDS011;67726;45.636;11.752;2024-01-30T05:57:32;71.78;;;38.25;;
78053;SDS011;67726;45.636;11.752;2024-01-30T05:59:57;81.20;;;36.57;;
78053;SDS011;67726;45.636;11.752;2024-01-30T06:02:23;76.63;;;36.55;;
78053;SDS011;67726;45.636;11.752;2024-01-30T06:04:49;76.47;;;36.57;;
78053;SDS011;67726;45.636;11.752;2024-01-30T06:07:14;77.25;;;37.35;;
78053;SDS011;67726;45.636;11.752;2024-01-30T06:09:40;79.13;;;38.30;;
78053;SDS011;67726;45.636;11.752;2024-01-30T06:12:06;89.40;;;41.00;;
78053;SDS011;67726;45.636;11.752;2024-01-30T06:14:32;86.95;;;40.17;;
78053;SDS011;67726;45.636;11.752;2024-01-30T06:16:58;81.97;;;39.97;;
78053;SDS011;67726;45.636;11.752;2024-01-30T06:19:24;73.00;;;35.72;;
78053;SDS011;67726;45.636;11.752;2024-01-30T06:21:54;75.77;;;35.40;;
78053;SDS011;67726;45.636;11.752;2024-01-30T06:24:20;82.93;;;38.03;;
78053;SDS011;67726;45.636;11.752;2024-01-30T06:26:45;75.40;;;37.25;;
78053;SDS011;67726;45.636;11.752;2024-01-30T06:29:11;92.80;;;38.30;;
78053;SDS011;67726;45.636;11.752;2024-01-30T06:31:40;83.30;;;37.30;;
78053;SDS011;67726;45.636;11.752;2024-01-30T06:34:09;76.15;;;35.42;;
78053;SDS011;67726;45.636;11.752;2024-01-30T06:36:36;79.13;;;36.83;;
78053;SDS011;67726;45.636;11.752;2024-01-30T06:39:02;80.60;;;38.70;;
78053;SDS011;67726;45.636;11.752;2024-01-30T06:41:28;81.70;;;37.60;;
78053;SDS011;67726;45.636;11.752;2024-01-30T06:43:54;80.45;;;37.60;;
78053;SDS011;67726;45.636;11.752;2024-01-30T06:46:20;89.05;;;36.42;;
78053;SDS011;67726;45.636;11.752;2024-01-30T06:48:46;81.13;;;36.93;;
78053;SDS011;67726;45.636;11.752;2024-01-30T06:51:12;74.13;;;34.90;;
78053;SDS011;67726;45.636;11.752;2024-01-30T06:53:38;90.43;;;40.30;;
78053;SDS011;67726;45.636;11.752;2024-01-30T06:56:03;100.40;;;44.92;;
78053;SDS011;67726;45.636;11.752;2024-01-30T06:58:29;115.95;;;49.10;;
78053;SDS011;67726;45.636;11.752;2024-01-30T07:00:55;85.20;;;38.50;;
78053;SDS011;67726;45.636;11.752;2024-01-30T07:03:21;80.65;;;37.40;;
78053;SDS011;67726;45.636;11.752;2024-01-30T07:05:47;78.30;;;36.90;;
78053;SDS011;67726;45.636;11.752;2024-01-30T07:08:14;70.47;;;33.33;;
78053;SDS011;67726;45.636;11.752;2024-01-30T07:10:42;81.43;;;35.97;;
78053;SDS011;67726;45.636;11.752;2024-01-30T07:13:08;71.30;;;32.00;;
78053;SDS011;67726;45.636;11.752;2024-01-30T07:15:35;74.90;;;35.17;;
78053;SDS011;67726;45.636;11.752;2024-01-30T07:18:01;75.20;;;35.20;;
78053;SDS011;67726;45.636;11.752;2024-01-30T07:20:27;68.43;;;33.63;;
78053;SDS011;67726;45.636;11.752;2024-01-30T07:22:55;71.45;;;34.22;;
78053;SDS011;67726;45.636;11.752;2024-01-30T07:25:21;70.05;;;35.03;;
78053;SDS011;67726;45.636;11.752;2024-01-30T07:27:51;66.00;;;33.33;;
78053;SDS011;67726;45.636;11.752;2024-01-30T07:30:17;61.50;;;31.70;;
78053;SDS011;67726;45.636;11.752;2024-01-30T07:32:43;59.42;;;32.03;;
78053;SDS011;67726;45.636;11.752;2024-01-30T07:35:09;61.37;;;29.67;;
78053;SDS011;67726;45.636;11.752;2024-01-30T07:37:36;51.17;;;26.48;;
78053;SDS011;67726;45.636;11.752;2024-01-30T07:40:02;52.45;;;26.98;;
78053;SDS011;67726;45.636;11.752;2024-01-30T07:42:28;49.92;;;26.58;;
78053;SDS011;67726;45.636;11.752;2024-01-30T07:44:54;52.27;;;27.50;;
78053;SDS011;67726;45.636;11.752;2024-01-30T07:47:20;50.75;;;25.80;;
78053;SDS011;67726;45.636;11.752;2024-01-30T07:49:46;43.13;;;24.10;;
78053;SDS011;67726;45.636;11.752;2024-01-30T07:52:12;39.83;;;22.48;;
78053;SDS011;67726;45.636;11.752;2024-01-30T07:54:50;48.17;;;25.70;;
78053;SDS011;67726;45.636;11.752;2024-01-30T07:57:17;48.85;;;27.45;;
78053;SDS011;67726;45.636;11.752;2024-01-30T07:59:43;39.67;;;22.77;;
78053;SDS011;67726;45.636;11.752;2024-01-30T08:02:10;40.35;;;21.10;;
78053;SDS011;67726;45.636;11.752;2024-01-30T08:04:36;38.17;;;21.98;;
78053;SDS011;67726;45.636;11.752;2024-01-30T08:07:02;38.77;;;20.50;;
78053;SDS011;67726;45.636;11.752;2024-01-30T08:09:28;39.88;;;20.63;;
78053;SDS011;67726;45.636;11.752;2024-01-30T08:11:54;32.95;;;20.48;;
78053;SDS011;67726;45.636;11.752;2024-01-30T08:14:19;39.73;;;22.83;;
78053;SDS011;67726;45.636;11.752;2024-01-30T08:16:45;38.17;;;21.50;;
78053;SDS011;67726;45.636;11.752;2024-01-30T08:19:11;38.80;;;21.48;;
78053;SDS011;67726;45.636;11.752;2024-01-30T08:21:38;38.13;;;22.58;;
78053;SDS011;67726;45.636;11.752;2024-01-30T08:24:04;36.38;;;20.95;;
78053;SDS011;67726;45.636;11.752;2024-01-30T08:26:31;37.47;;;21.20;;
78053;SDS011;67726;45.636;11.752;2024-01-30T08:28:57;34.67;;;20.02;;
78053;SDS011;67726;45.636;11.752;2024-01-30T08:31:23;37.65;;;20.10;;
78053;SDS011;67726;45.636;11.752;2024-01-30T08:33:49;39.43;;;21.23;;
78053;SDS011;67726;45.636;11.752;2024-01-30T08:36:15;31.85;;;19.83;;
78053;SDS011;67726;45.636;11.752;2024-01-30T08:38:41;35.28;;;19.67;;
78053;SDS011;67726;45.636;11.752;2024-01-30T08:41:07;31.73;;;19.27;;
78053;SDS011;67726;45.636;11.752;2024-01-30T08:43:33;33.47;;;19.17;;
78053;SDS011;67726;45.636;11.752;2024-01-30T08:46:02;33.30;;;20.37;;
78053;SDS011;67726;45.636;11.752;2024-01-30T08:48:28;33.40;;;19.58;;
78053;SDS011;67726;45.636;11.752;2024-01-30T08:50:54;34.47;;;20.60;;
78053;SDS011;67726;45.636;11.752;2024-01-30T08:53:20;31.60;;;19.17;;
78053;SDS011;67726;45.636;11.752;2024-01-30T08:55:45;31.48;;;20.30;;
78053;SDS011;67726;45.636;11.752;2024-01-30T08:58:11;31.20;;;21.43;;
78053;SDS011;67726;45.636;11.752;2024-01-30T09:00:37;42.75;;;24.67;;
78053;SDS011;67726;45.636;11.752;2024-01-30T09:03:03;38.95;;;22.75;;
78053;SDS011;67726;45.636;11.752;2024-01-30T09:05:29;39.50;;;23.50;;
78053;SDS011;67726;45.636;11.752;2024-01-30T09:07:54;39.53;;;21.50;;
78053;SDS011;67726;45.636;11.752;2024-01-30T09:10:20;38.60;;;23.20;;
78053;SDS011;67726;45.636;11.752;2024-01-30T09:12:47;34.67;;;22.55;;
78053;SDS011;67726;45.636;11.752;2024-01-30T09:15:14;38.23;;;23.77;;
78053;SDS011;67726;45.636;11.752;2024-01-30T09:17:40;36.50;;;23.67;;
78053;SDS011;67726;45.636;11.752;2024-01-30T09:20:06;33.15;;;20.17;;
78053;SDS011;67726;45.636;11.752;2024-01-30T09:22:32;32.30;;;20.27;;
78053;SDS011;67726;45.636;11.752;2024-01-30T09:24:58;32.22;;;21.48;;
78053;SDS011;67726;45.636;11.752;2024-01-30T09:27:23;33.10;;;20.77;;
78053;SDS011;67726;45.636;11.752;2024-01-30T09:29:51;31.17;;;21.40;;
78053;SDS011;67726;45.636;11.752;2024-01-30T09:32:16;28.55;;;19.02;;
78053;SDS011;67726;45.636;11.752;2024-01-30T09:34:42;34.28;;;20.83;;
78053;SDS011;67726;45.636;11.752;2024-01-30T09:37:08;30.60;;;20.47;;
78053;SDS011;67726;45.636;11.752;2024-01-30T09:39:34;30.55;;;20.95;;
78053;SDS011;67726;45.636;11.752;2024-01-30T09:42:33;28.13;;;19.33;;
78053;SDS011;67726;45.636;11.752;2024-01-30T09:44:53;30.30;;;19.05;;
78053;SDS011;67726;45.636;11.752;2024-01-30T09:47:20;27.27;;;18.30;;
78053;SDS011;67726;45.636;11.752;2024-01-30T09:49:46;28.60;;;19.33;;
78053;SDS011;67726;45.636;11.752;2024-01-30T09:52:12;27.95;;;18.73;;
78053;SDS011;67726;45.636;11.752;2024-01-30T09:54:38;28.20;;;17.55;;
78053;SDS011;67726;45.636;11.752;2024-01-30T09:57:05;29.00;;;18.38;;
78053;SDS011;67726;45.636;11.752;2024-01-30T09:59:32;28.93;;;17.03;;
78053;SDS011;67726;45.636;11.752;2024-01-30T10:01:58;25.35;;;16.55;;
78053;SDS011;67726;45.636;11.752;2024-01-30T10:04:23;27.42;;;16.52;;
78053;SDS011;67726;45.636;11.752;2024-01-30T10:06:49;26.07;;;16.27;;
78053;SDS011;67726;45.636;11.752;2024-01-30T10:09:16;28.63;;;16.52;;
78053;SDS011;67726;45.636;11.752;2024-01-30T10:11:41;26.40;;;17.07;;
78053;SDS011;67726;45.636;11.752;2024-01-30T10:14:07;25.10;;;15.98;;
78053;SDS011;67726;45.636;11.752;2024-01-30T10:16:34;24.00;;;15.37;;
78053;SDS011;67726;45.636;11.752;2024-01-30T10:19:00;24.42;;;16.10;;
78053;SDS011;67726;45.636;11.752;2024-01-30T10:21:26;24.05;;;15.57;;
78053;SDS011;67726;45.636;11.752;2024-01-30T10:23:52;27.63;;;16.05;;
78053;SDS011;67726;45.636;11.752;2024-01-30T10:26:18;27.40;;;16.07;;
78053;SDS011;67726;45.636;11.752;2024-01-30T10:28:44;26.30;;;16.13;;
78053;SDS011;67726;45.636;11.752;2024-01-30T10:31:10;23.50;;;15.60;;
78053;SDS011;67726;45.636;11.752;2024-01-30T10:33:36;25.87;;;16.40;;
78053;SDS011;67726;45.636;11.752;2024-01-30T10:36:03;26.58;;;16.67;;
78053;SDS011;67726;45.636;11.752;2024-01-30T10:38:30;25.35;;;15.82;;
78053;SDS011;67726;45.636;11.752;2024-01-30T10:40:57;25.38;;;15.73;;
78053;SDS011;67726;45.636;11.752;2024-01-30T10:43:35;28.20;;;16.03;;
78053;SDS011;67726;45.636;11.752;2024-01-30T10:46:11;33.05;;;16.40;;
78053;SDS011;67726;45.636;11.752;2024-01-30T10:48:44;30.77;;;16.38;;
78053;SDS011;67726;45.636;11.752;2024-01-30T10:51:15;24.58;;;16.70;;
78053;SDS011;67726;45.636;11.752;2024-01-30T10:53:41;28.40;;;17.95;;
78053;SDS011;67726;45.636;11.752;2024-01-30T10:56:11;27.57;;;16.60;;
78053;SDS011;67726;45.636;11.752;2024-01-30T10:58:38;29.60;;;18.83;;
78053;SDS011;67726;45.636;11.752;2024-01-30T11:01:05;25.77;;;16.08;;
78053;SDS011;67726;45.636;11.752;2024-01-30T11:03:32;30.10;;;18.60;;
78053;SDS011;67726;45.636;11.752;2024-01-30T11:06:02;27.05;;;17.90;;
78053;SDS011;67726;45.636;11.752;2024-01-30T11:08:28;25.55;;;15.95;;
78053;SDS011;67726;45.636;11.752;2024-01-30T11:10:57;25.90;;;15.80;;
78053;SDS011;67726;45.636;11.752;2024-01-30T11:13:27;26.48;;;16.63;;
78053;SDS011;67726;45.636;11.752;2024-01-30T11:15:54;25.73;;;16.43;;
78053;SDS011;67726;45.636;11.752;2024-01-30T11:18:23;28.80;;;17.67;;
78053;SDS011;67726;45.636;11.752;2024-01-30T11:20:50;30.77;;;16.77;;
78053;SDS011;67726;45.636;11.752;2024-01-30T11:23:16;27.00;;;16.87;;
78053;SDS011;67726;45.636;11.752;2024-01-30T11:25:43;30.70;;;17.00;;
78053;SDS011;67726;45.636;11.752;2024-01-30T11:28:16;25.83;;;15.35;;
78053;SDS011;67726;45.636;11.752;2024-01-30T11:30:42;29.58;;;15.75;;
78053;SDS011;67726;45.636;11.752;2024-01-30T11:33:12;28.07;;;15.93;;
78053;SDS011;67726;45.636;11.752;2024-01-30T11:35:39;30.60;;;16.17;;
78053;SDS011;67726;45.636;11.752;2024-01-30T11:38:10;28.98;;;16.35;;
78053;SDS011;67726;45.636;11.752;2024-01-30T11:40:38;28.45;;;15.90;;
78053;SDS011;67726;45.636;11.752;2024-01-30T11:43:05;27.03;;;17.60;;
78053;SDS011;67726;45.636;11.752;2024-01-30T11:45:32;30.13;;;16.38;;
78053;SDS011;67726;45.636;11.752;2024-01-30T11:47:58;30.83;;;17.10;;
78053;SDS011;67726;45.636;11.752;2024-01-30T11:50:28;30.95;;;17.25;;
78053;SDS011;67726;45.636;11.752;2024-01-30T11:52:59;27.65;;;17.10;;
78053;SDS011;67726;45.636;11.752;2024-01-30T11:55:25;33.80;;;17.70;;
78053;SDS011;67726;45.636;11.752;2024-01-30T11:57:51;30.30;;;18.17;;
78053;SDS011;67726;45.636;11.752;2024-01-30T12:00:20;34.05;;;17.75;;
78053;SDS011;67726;45.636;11.752;2024-01-30T12:02:49;31.42;;;16.73;;
78053;SDS011;67726;45.636;11.752;2024-01-30T12:05:16;32.70;;;17.13;;
78053;SDS011;67726;45.636;11.752;2024-01-30T12:07:44;30.73;;;17.53;;
78053;SDS011;67726;45.636;11.752;2024-01-30T12:10:12;35.88;;;17.83;;
78053;SDS011;67726;45.636;11.752;2024-01-30T12:12:39;31.08;;;18.02;;
78053;SDS011;67726;45.636;11.752;2024-01-30T12:15:06;33.00;;;17.92;;
78053;SDS011;67726;45.636;11.752;2024-01-30T12:17:33;31.08;;;18.70;;
78053;SDS011;67726;45.636;11.752;2024-01-30T12:22:40;32.83;;;18.98;;
78053;SDS011;67726;45.636;11.752;2024-01-30T12:25:08;31.67;;;18.52;;
78053;SDS011;67726;45.636;11.752;2024-01-30T12:27:34;31.17;;;18.90;;
78053;SDS011;67726;45.636;11.752;2024-01-30T12:30:00;33.83;;;18.83;;
78053;SDS011;67726;45.636;11.752;2024-01-30T12:32:26;35.50;;;19.33;;
78053;SDS011;67726;45.636;11.752;2024-01-30T12:34:56;34.75;;;19.63;;
78053;SDS011;67726;45.636;11.752;2024-01-30T12:37:22;35.75;;;17.40;;
78053;SDS011;67726;45.636;11.752;2024-01-30T12:39:49;34.08;;;18.73;;
78053;SDS011;67726;45.636;11.752;2024-01-30T12:42:21;39.23;;;18.57;;
78053;SDS011;67726;45.636;11.752;2024-01-30T12:44:47;42.60;;;21.17;;
78053;SDS011;67726;45.636;11.752;2024-01-30T12:47:14;33.35;;;17.85;;
78053;SDS011;67726;45.636;11.752;2024-01-30T12:49:41;35.25;;;17.15;;
78053;SDS011;67726;45.636;11.752;2024-01-30T12:52:09;36.25;;;17.48;;
78053;SDS011;67726;45.636;11.752;2024-01-30T12:54:38;43.53;;;19.40;;
78053;SDS011;67726;45.636;11.752;2024-01-30T12:57:04;38.92;;;20.30;;
78053;SDS011;67726;45.636;11.752;2024-01-30T12:59:30;38.42;;;19.20;;
78053;SDS011;67726;45.636;11.752;2024-01-30T13:01:56;36.70;;;18.83;;
78053;SDS011;67726;45.636;11.752;2024-01-30T13:04:22;34.00;;;18.52;;
78053;SDS011;67726;45.636;11.752;2024-01-30T13:06:48;31.48;;;18.23;;
78053;SDS011;67726;45.636;11.752;2024-01-30T13:09:14;34.30;;;16.47;;
78053;SDS011;67726;45.636;11.752;2024-01-30T13:11:40;34.63;;;18.25;;
78053;SDS011;67726;45.636;11.752;2024-01-30T13:14:05;30.70;;;18.37;;
78053;SDS011;67726;45.636;11.752;2024-01-30T13:16:31;32.45;;;18.75;;
78053;SDS011;67726;45.636;11.752;2024-01-30T13:18:57;32.47;;;19.37;;
78053;SDS011;67726;45.636;11.752;2024-01-30T13:21:22;32.45;;;19.33;;
78053;SDS011;67726;45.636;11.752;2024-01-30T13:23:48;30.53;;;17.73;;
78053;SDS011;67726;45.636;11.752;2024-01-30T13:26:18;33.08;;;18.60;;
78053;SDS011;67726;45.636;11.752;2024-01-30T13:28:43;33.33;;;19.00;;
78053;SDS011;67726;45.636;11.752;2024-01-30T13:31:09;29.70;;;18.40;;
78053;SDS011;67726;45.636;11.752;2024-01-30T13:33:35;32.93;;;18.17;;
78053;SDS011;67726;45.636;11.752;2024-01-30T13:36:01;32.22;;;18.45;;
78053;SDS011;67726;45.636;11.752;2024-01-30T13:38:26;36.60;;;18.93;;
78053;SDS011;67726;45.636;11.752;2024-01-30T13:40:52;34.90;;;19.60;;
78053;SDS011;67726;45.636;11.752;2024-01-30T13:43:17;33.67;;;18.57;;
78053;SDS011;67726;45.636;11.752;2024-01-30T13:45:43;37.10;;;20.23;;
78053;SDS011;67726;45.636;11.752;2024-01-30T13:48:09;36.33;;;19.13;;
78053;SDS011;67726;45.636;11.752;2024-01-30T13:50:34;36.22;;;19.65;;
78053;SDS011;67726;45.636;11.752;2024-01-30T13:53:01;33.63;;;18.57;;
78053;SDS011;67726;45.636;11.752;2024-01-30T13:55:28;35.75;;;20.70;;
78053;SDS011;67726;45.636;11.752;2024-01-30T13:57:54;33.77;;;19.67;;
78053;SDS011;67726;45.636;11.752;2024-01-30T14:00:21;37.13;;;20.10;;
78053;SDS011;67726;45.636;11.752;2024-01-30T14:02:47;35.28;;;19.02;;
78053;SDS011;67726;45.636;11.752;2024-01-30T14:05:13;40.10;;;21.47;;
78053;SDS011;67726;45.636;11.752;2024-01-30T14:07:40;33.13;;;18.65;;